createdAt,value
2023-03-06T00:00:38.193Z,99397.44
2023-03-06T00:03:06.134Z,99402.50
2023-03-06T00:05:33.253Z,99391.38
2023-03-06T00:08:00.345Z,99399.03
2023-03-06T00:10:29.925Z,99394.00
2023-03-06T00:13:00.393Z,99393.91
2023-03-06T00:15:28.258Z,99390.56
2023-03-06T00:17:56.166Z,99393.91
2023-03-06T00:20:24.506Z,99387.97
2023-03-06T00:22:51.521Z,99387.97
2023-03-06T00:25:21.286Z,99376.91
2023-03-06T00:27:49.103Z,99381.13
2023-03-06T00:30:21.931Z,99382.78
2023-03-06T00:32:49.556Z,99375.31
2023-03-06T00:35:17.227Z,99377.00
2023-03-06T00:37:44.802Z,99370.34
2023-03-06T00:40:14.959Z,99368.59
2023-03-06T00:42:41.808Z,99364.19
2023-03-06T00:45:09.818Z,99374.56
2023-03-06T00:47:37.658Z,99370.34
2023-03-06T00:50:05.369Z,99363.53
2023-03-06T00:52:32.661Z,99380.38
2023-03-06T00:54:59.807Z,99360.00
2023-03-06T00:57:27.106Z,99368.41
2023-03-06T00:59:54.192Z,99356.59
2023-03-06T01:02:21.525Z,99362.53
2023-03-06T01:04:49.260Z,99360.00
2023-03-06T01:07:16.411Z,99354.94
2023-03-06T01:09:43.439Z,99358.31
2023-03-06T01:12:10.593Z,99347.25
2023-03-06T01:14:37.640Z,99343.88
2023-03-06T01:17:04.967Z,99337.88
2023-03-06T01:19:32.049Z,99342.22
2023-03-06T01:21:59.190Z,99341.34
2023-03-06T01:24:26.348Z,99334.44
2023-03-06T01:26:56.762Z,99339.59
2023-03-06T01:29:23.932Z,99340.41
2023-03-06T01:31:51.197Z,99339.59
2023-03-06T01:34:18.792Z,99331.22
2023-03-06T01:36:45.864Z,99331.22
2023-03-06T01:39:13.030Z,99335.50
2023-03-06T01:41:40.106Z,99337.22
2023-03-06T01:44:07.142Z,99331.22
2023-03-06T01:46:42.225Z,99315.06
2023-03-06T01:49:30.918Z,99320.97
2023-03-06T01:52:03.508Z,99316.69
2023-03-06T01:54:41.043Z,99316.91
2023-03-06T01:57:30.858Z,99317.66
2023-03-06T02:00:20.414Z,99305.53
2023-03-06T02:02:55.276Z,99315.66
2023-03-06T02:05:22.726Z,99308.06
2023-03-06T02:07:50.960Z,99307.38
2023-03-06T02:10:19.004Z,99307.38
2023-03-06T02:12:47.501Z,99302.50
2023-03-06T02:15:17.487Z,99300.88
2023-03-06T02:17:45.977Z,99305.81
2023-03-06T02:20:34.820Z,99298.09
2023-03-06T02:23:13.969Z,99295.44
2023-03-06T02:25:49.850Z,99295.44
2023-03-06T02:28:20.707Z,99296.16
2023-03-06T02:30:48.442Z,99297.63
2023-03-06T02:33:18.099Z,99295.91
2023-03-06T02:36:04.020Z,99307.66
2023-03-06T02:38:40.917Z,99301.84
2023-03-06T02:41:08.798Z,99290.19
2023-03-06T02:43:39.352Z,99285.06
2023-03-06T02:46:07.701Z,99291.91
2023-03-06T02:48:35.108Z,99289.28
2023-03-06T02:51:02.255Z,99285.13
2023-03-06T02:53:29.280Z,99273.97
2023-03-06T02:55:58.962Z,99290.13
2023-03-06T02:58:25.978Z,99288.44
2023-03-06T03:00:53.278Z,99274.84
2023-03-06T03:03:21.293Z,99286.75
2023-03-06T03:05:48.300Z,99280.88
2023-03-06T03:08:22.959Z,99275.81
2023-03-06T03:10:53.833Z,99280.00
2023-03-06T03:13:21.032Z,99254.31
2023-03-06T03:16:03.255Z,99256.16
2023-03-06T03:18:30.465Z,99263.75
2023-03-06T03:20:57.587Z,99267.97
2023-03-06T03:23:25.081Z,99256.06
2023-03-06T03:25:52.099Z,99266.19
2023-03-06T03:28:20.298Z,99261.28
2023-03-06T03:30:47.436Z,99251.84
2023-03-06T03:33:14.542Z,99261.47
2023-03-06T03:35:43.525Z,99223.91
2023-03-06T03:38:10.624Z,99258.41
2023-03-06T03:40:39.246Z,99259.44
2023-03-06T03:43:06.387Z,99245.88
2023-03-06T03:45:33.549Z,99257.13
2023-03-06T03:48:00.575Z,99250.38
2023-03-06T03:50:27.630Z,99250.63
2023-03-06T03:52:54.775Z,99249.91
2023-03-06T03:55:21.861Z,99252.53
2023-03-06T03:57:49.221Z,99248.34
2023-03-06T04:00:17.138Z,99244.28
2023-03-06T04:03:01.207Z,99247.72
2023-03-06T04:05:36.121Z,99246.00
2023-03-06T04:08:06.020Z,99247.72
2023-03-06T04:10:34.585Z,99234.34
2023-03-06T04:13:02.857Z,99224.31
2023-03-06T04:15:29.995Z,99219.31
2023-03-06T04:17:57.175Z,99224.47
2023-03-06T04:20:28.084Z,99224.47
2023-03-06T04:22:56.418Z,99209.22
2023-03-06T04:25:23.925Z,99222.84
2023-03-06T04:27:51.180Z,99217.78
2023-03-06T04:30:18.497Z,99219.47
2023-03-06T04:32:45.608Z,99219.47
2023-03-06T04:35:12.734Z,99209.34
2023-03-06T04:37:52.121Z,99207.75
2023-03-06T04:40:27.678Z,99212.81
2023-03-06T04:42:56.778Z,99200.06
2023-03-06T04:45:24.430Z,99185.53
2023-03-06T04:47:51.489Z,99199.31
2023-03-06T04:50:19.324Z,99203.44
2023-03-06T04:52:46.809Z,99199.16
2023-03-06T04:55:17.379Z,99203.31
2023-03-06T04:57:46.303Z,99202.53
2023-03-06T05:00:22.581Z,99195.72
2023-03-06T05:02:50.616Z,99188.03
2023-03-06T05:05:19.040Z,99194.88
2023-03-06T05:07:46.063Z,99188.13
2023-03-06T05:10:17.057Z,99189.81
2023-03-06T05:12:44.492Z,99188.97
2023-03-06T05:15:13.382Z,99180.31
2023-03-06T05:17:40.772Z,99185.38
2023-03-06T05:20:11.317Z,99181.94
2023-03-06T05:22:38.713Z,99188.47
2023-03-06T05:25:06.761Z,99190.28
2023-03-06T05:27:34.117Z,99183.47
2023-03-06T05:30:01.161Z,99187.00
2023-03-06T05:32:28.540Z,99178.59
2023-03-06T05:34:56.197Z,99168.50
2023-03-06T05:37:23.594Z,99171.09
2023-03-06T05:39:51.701Z,99179.66
2023-03-06T05:42:18.798Z,99177.13
2023-03-06T05:44:46.226Z,99172.06
2023-03-06T05:47:13.916Z,99173.84
2023-03-06T05:49:41.028Z,99179.00
2023-03-06T05:52:08.921Z,99174.00
2023-03-06T05:54:37.437Z,99162.34
2023-03-06T05:57:05.478Z,99167.47
2023-03-06T05:59:33.339Z,99167.53
2023-03-06T06:02:01.467Z,99162.59
2023-03-06T06:04:29.689Z,99169.50
2023-03-06T06:06:59.564Z,99156.03
2023-03-06T06:09:27.398Z,99157.88
2023-03-06T06:11:57.251Z,99156.19
2023-03-06T06:14:24.807Z,99161.47
2023-03-06T06:16:52.759Z,99164.81
2023-03-06T06:19:20.484Z,99153.78
2023-03-06T06:21:49.049Z,99164.97
2023-03-06T06:24:17.751Z,99164.31
2023-03-06T06:26:45.618Z,99156.78
2023-03-06T06:29:13.913Z,99158.53
2023-03-06T06:31:41.617Z,99152.63
2023-03-06T06:34:11.008Z,99156.97
2023-03-06T06:36:38.685Z,99153.72
2023-03-06T06:39:06.699Z,99159.81
2023-03-06T06:41:51.027Z,99148.09
2023-03-06T06:44:21.512Z,99155.75
2023-03-06T06:47:21.347Z,99159.25
2023-03-06T06:49:37.936Z,99161.03
2023-03-06T06:52:06.472Z,99155.97
2023-03-06T06:54:34.929Z,99141.59
2023-03-06T06:57:02.103Z,99145.88
2023-03-06T06:59:29.218Z,99152.88
2023-03-06T07:01:56.258Z,99146.28
2023-03-06T07:04:23.547Z,99145.38
2023-03-06T07:06:50.602Z,99158.28
2023-03-06T07:09:17.943Z,99163.47
2023-03-06T07:11:45.010Z,99151.75
2023-03-06T07:14:12.109Z,99157.00
2023-03-06T07:16:39.866Z,99152.91
2023-03-06T07:19:07.906Z,99150.44
2023-03-06T07:21:35.011Z,99147.16
2023-03-06T07:24:02.171Z,99145.47
2023-03-06T07:26:29.348Z,99148.91
2023-03-06T07:28:56.497Z,99155.78
2023-03-06T07:31:26.560Z,99152.53
2023-03-06T07:33:54.318Z,99155.13
2023-03-06T07:36:23.699Z,99146.81
2023-03-06T07:38:50.728Z,99142.78
2023-03-06T07:41:21.864Z,99148.88
2023-03-06T07:43:50.431Z,99156.63
2023-03-06T07:46:17.826Z,99154.22
2023-03-06T07:48:44.925Z,99153.56
2023-03-06T07:51:20.508Z,99142.63
2023-03-06T07:53:49.314Z,99153.06
2023-03-06T07:56:17.163Z,99147.25
2023-03-06T07:58:46.029Z,99149.94
2023-03-06T08:01:16.486Z,99146.66
2023-03-06T08:03:44.104Z,99145.94
2023-03-06T08:06:16.314Z,99146.00
2023-03-06T08:08:45.990Z,99144.44
2023-03-06T08:11:16.076Z,99137.72
2023-03-06T08:13:43.899Z,99144.59
2023-03-06T08:16:11.175Z,99148.09
2023-03-06T08:18:41.481Z,99138.81
2023-03-06T08:21:12.038Z,99134.66
2023-03-06T08:23:40.039Z,99139.84
2023-03-06T08:26:19.870Z,99143.25
2023-03-06T08:28:47.205Z,99135.72
2023-03-06T08:31:36.181Z,99145.13
2023-03-06T08:34:06.437Z,99134.97
2023-03-06T08:36:33.596Z,99140.00
2023-03-06T08:39:01.137Z,99134.91
2023-03-06T08:41:28.419Z,99135.81
2023-03-06T08:43:55.474Z,99129.09
2023-03-06T08:46:25.179Z,99133.44
2023-03-06T08:48:52.441Z,99128.41
2023-03-06T08:51:20.422Z,99129.28
2023-03-06T08:53:47.837Z,99135.28
2023-03-06T08:56:27.162Z,99131.94
2023-03-06T08:58:55.419Z,99133.78
2023-03-06T09:01:31.280Z,99122.00
2023-03-06T09:04:00.400Z,99127.19
2023-03-06T09:06:31.194Z,99127.25
2023-03-06T09:08:58.336Z,99134.09
2023-03-06T09:11:26.634Z,99123.91
2023-03-06T09:13:54.838Z,99129.00
2023-03-06T09:16:22.061Z,99125.56
2023-03-06T09:18:53.216Z,99129.03
2023-03-06T09:21:25.227Z,99129.81
2023-03-06T09:23:52.282Z,99130.66
2023-03-06T09:26:19.758Z,99136.56
2023-03-06T09:28:47.238Z,99129.75
2023-03-06T09:31:17.686Z,99134.03
2023-03-06T09:33:45.226Z,99139.13
2023-03-06T09:36:21.305Z,99137.41
2023-03-06T09:38:50.181Z,99139.13
2023-03-06T09:41:41.774Z,99139.13
2023-03-06T09:44:26.300Z,99130.66
2023-03-06T09:47:15.326Z,99127.28
2023-03-06T09:50:01.052Z,99127.38
2023-03-06T09:52:46.169Z,99123.97
2023-03-06T09:55:16.105Z,99139.38
2023-03-06T09:58:25.607Z,99137.63
2023-03-06T10:01:07.302Z,99129.16
2023-03-06T10:03:38.311Z,99133.41
2023-03-06T10:06:26.484Z,99129.13
2023-03-06T10:09:11.243Z,99128.31
2023-03-06T10:11:59.115Z,99125.78
2023-03-06T10:14:38.020Z,99125.78
2023-03-06T10:17:06.422Z,99126.66
2023-03-06T10:19:36.270Z,99125.88
2023-03-06T10:22:37.207Z,99125.91
2023-03-06T10:25:24.930Z,99123.34
2023-03-06T10:28:04.603Z,99124.16
2023-03-06T10:30:50.900Z,99119.06
2023-03-06T10:33:47.349Z,99122.47
2023-03-06T10:36:19.703Z,99123.31
2023-03-06T10:38:48.930Z,99120.72
2023-03-06T10:41:36.830Z,99120.72
2023-03-06T10:44:04.039Z,99126.66
2023-03-06T10:46:40.081Z,99111.31
2023-03-06T10:49:30.797Z,99115.56
2023-03-06T10:52:20.915Z,99113.88
2023-03-06T10:54:48.667Z,99117.19
2023-03-06T10:57:24.561Z,99112.09
2023-03-06T10:59:55.935Z,99119.75
2023-03-06T11:02:39.812Z,99115.50
2023-03-06T11:05:19.412Z,99112.94
2023-03-06T11:08:00.750Z,99112.09
2023-03-06T11:10:30.426Z,99113.81
2023-03-06T11:13:03.188Z,99107.88
2023-03-06T11:15:31.099Z,99104.44
2023-03-06T11:18:24.514Z,99106.19
2023-03-06T11:20:54.756Z,99103.66
2023-03-06T11:23:41.371Z,99101.97
2023-03-06T11:26:26.588Z,99097.75
2023-03-06T11:29:23.230Z,99098.59
2023-03-06T11:32:31.625Z,99095.19
2023-03-06T11:35:06.463Z,99093.50
2023-03-06T11:38:05.063Z,99090.97
2023-03-06T11:40:40.631Z,99088.41
2023-03-06T11:43:35.573Z,99091.78
2023-03-06T11:46:21.848Z,99095.19
2023-03-06T11:48:54.549Z,99090.09
2023-03-06T11:51:26.170Z,99088.38
2023-03-06T11:53:54.476Z,99081.56
2023-03-06T11:56:55.387Z,99086.66
2023-03-06T11:59:47.288Z,99083.31
2023-03-06T12:02:37.927Z,99079.91
2023-03-06T12:05:37.631Z,99085.88
2023-03-06T12:08:23.344Z,99072.22
2023-03-06T12:11:01.800Z,99078.19
2023-03-06T12:14:02.117Z,99077.38
2023-03-06T12:16:49.286Z,99083.31
2023-03-06T12:19:43.931Z,99078.13
2023-03-06T12:22:22.836Z,99074.72
2023-03-06T12:24:52.775Z,99078.09
2023-03-06T12:27:22.533Z,99077.25
2023-03-06T12:29:55.755Z,99075.50
2023-03-06T12:32:35.432Z,99074.66
2023-03-06T12:35:31.918Z,99078.91
2023-03-06T12:38:08.218Z,99088.28
2023-03-06T12:41:01.293Z,99074.66
2023-03-06T12:43:38.936Z,99072.97
2023-03-06T12:46:16.208Z,99076.38
2023-03-06T12:48:48.964Z,99071.28
2023-03-06T12:51:20.697Z,99078.09
2023-03-06T12:53:49.960Z,99083.19
2023-03-06T12:56:19.060Z,99079.84
2023-03-06T12:58:54.650Z,99078.09
2023-03-06T13:01:49.133Z,99079.75
2023-03-06T13:04:27.769Z,99073.81
2023-03-06T13:07:00.130Z,99082.34
2023-03-06T13:09:36.898Z,99078.16
2023-03-06T13:12:15.791Z,99071.38
2023-03-06T13:14:53.906Z,99073.13
2023-03-06T13:17:24.639Z,99066.34
2023-03-06T13:20:13.938Z,99063.78
2023-03-06T13:22:45.717Z,99064.59
2023-03-06T13:25:18.838Z,99062.06
2023-03-06T13:27:54.965Z,99064.63
2023-03-06T13:30:23.646Z,99073.13
2023-03-06T13:32:55.070Z,99065.44
2023-03-06T13:35:32.280Z,99074.78
2023-03-06T13:38:00.676Z,99069.66
2023-03-06T13:40:36.724Z,99063.66
2023-03-06T13:43:15.276Z,99061.97
2023-03-06T13:45:43.989Z,99064.53
2023-03-06T13:48:47.675Z,99054.28
2023-03-06T13:51:24.344Z,99066.19
2023-03-06T13:54:09.772Z,99063.63
2023-03-06T13:56:55.805Z,99061.94
2023-03-06T13:59:34.829Z,99058.53
2023-03-06T14:02:39.610Z,99058.56
2023-03-06T14:05:15.514Z,99061.09
2023-03-06T14:07:45.102Z,99061.09
2023-03-06T14:10:25.019Z,99054.25
2023-03-06T14:12:58.623Z,99062.75
2023-03-06T14:15:43.158Z,99061.91
2023-03-06T14:18:14.830Z,99060.16
2023-03-06T14:20:50.971Z,99058.44
2023-03-06T14:23:42.717Z,99055.88
2023-03-06T14:26:26.672Z,99057.50
2023-03-06T14:28:53.704Z,99060.84
2023-03-06T14:31:24.683Z,99051.53
2023-03-06T14:33:54.673Z,99054.91
2023-03-06T14:36:25.432Z,99052.41
2023-03-06T14:39:08.973Z,99054.06
2023-03-06T14:41:37.051Z,99055.75
2023-03-06T14:44:16.901Z,99056.63
2023-03-06T14:46:55.297Z,99060.84
2023-03-06T14:49:25.338Z,99056.59
2023-03-06T14:51:56.969Z,99055.69
2023-03-06T14:54:31.359Z,99059.03
2023-03-06T14:57:06.102Z,99057.28
2023-03-06T14:59:49.167Z,99059.78
2023-03-06T15:02:21.741Z,99055.53
2023-03-06T15:05:00.405Z,99053.88
2023-03-06T15:07:32.648Z,99056.44
2023-03-06T15:10:01.306Z,99054.75
2023-03-06T15:12:31.335Z,99050.47
2023-03-06T15:15:00.190Z,99058.91
2023-03-06T15:17:27.306Z,99055.53
2023-03-06T15:19:57.504Z,99051.28
2023-03-06T15:22:28.855Z,99049.56
2023-03-06T15:25:09.418Z,99035.06
2023-03-06T15:27:36.614Z,99046.97
2023-03-06T15:30:22.416Z,99053.81
2023-03-06T15:32:49.852Z,99052.06
2023-03-06T15:35:29.145Z,99057.16
2023-03-06T15:37:57.566Z,99058.00
2023-03-06T15:40:27.136Z,99064.81
2023-03-06T15:42:54.534Z,99062.25
2023-03-06T15:45:23.931Z,99062.28
2023-03-06T15:47:53.554Z,99062.28
2023-03-06T15:50:23.365Z,99053.72
2023-03-06T15:52:51.124Z,99062.22
2023-03-06T15:55:21.127Z,99063.84
2023-03-06T15:57:54.957Z,99070.56
2023-03-06T16:00:28.705Z,99067.13
2023-03-06T16:02:57.225Z,99067.91
2023-03-06T16:05:25.054Z,99060.28
2023-03-06T16:07:52.260Z,99062.81
2023-03-06T16:10:22.588Z,99061.94
2023-03-06T16:13:13.098Z,99058.53
2023-03-06T16:15:45.541Z,99061.94
2023-03-06T16:18:13.290Z,99061.94
2023-03-06T16:20:41.807Z,99060.19
2023-03-06T16:23:12.325Z,99065.25
2023-03-06T16:25:45.866Z,99049.94
2023-03-06T16:28:16.620Z,99057.59
2023-03-06T16:30:44.691Z,99064.34
2023-03-06T16:33:13.351Z,99052.44
2023-03-06T16:35:41.469Z,99054.91
2023-03-06T16:38:10.625Z,99056.56
2023-03-06T16:40:41.491Z,99056.47
2023-03-06T16:43:10.808Z,99066.59
2023-03-06T16:45:40.972Z,99064.88
2023-03-06T16:48:11.253Z,99059.75
2023-03-06T16:50:40.020Z,99063.94
2023-03-06T16:53:08.115Z,99067.22
2023-03-06T16:55:35.248Z,99062.06
2023-03-06T16:58:02.516Z,99066.25
2023-03-06T17:00:33.355Z,99067.91
2023-03-06T17:03:01.884Z,99062.00
2023-03-06T17:05:29.709Z,99061.09
2023-03-06T17:07:56.851Z,99066.16
2023-03-06T17:10:26.509Z,99070.28
2023-03-06T17:12:55.519Z,99076.09
2023-03-06T17:15:23.143Z,99072.59
2023-03-06T17:17:51.778Z,99080.94
2023-03-06T17:20:19.735Z,99078.34
2023-03-06T17:22:46.842Z,99068.97
2023-03-06T17:25:16.293Z,99068.81
2023-03-06T17:27:43.357Z,99078.91
2023-03-06T17:30:11.295Z,99080.53
2023-03-06T17:32:41.192Z,99085.56
2023-03-06T17:35:09.558Z,99076.97
2023-03-06T17:37:36.840Z,99076.97
2023-03-06T17:40:04.364Z,99087.13
2023-03-06T17:42:31.492Z,99078.53
2023-03-06T17:44:58.605Z,99084.44
2023-03-06T17:47:25.719Z,99077.59
2023-03-06T17:49:52.741Z,99077.44
2023-03-06T17:52:19.775Z,99083.41
2023-03-06T17:54:50.002Z,99085.06
2023-03-06T17:57:17.129Z,99076.47
2023-03-06T17:59:48.703Z,99083.19
2023-03-06T18:02:16.631Z,99088.16
2023-03-06T18:04:43.869Z,99088.09
2023-03-06T18:07:11.328Z,99088.00
2023-03-06T18:09:38.788Z,99082.94
2023-03-06T18:12:06.207Z,99082.94
2023-03-06T18:14:33.265Z,99085.47
2023-03-06T18:17:00.515Z,99082.88
2023-03-06T18:19:27.710Z,99082.84
2023-03-06T18:21:54.909Z,99079.41
2023-03-06T18:24:22.001Z,99065.66
2023-03-06T18:26:49.185Z,99076.75
2023-03-06T18:29:16.923Z,99077.53
2023-03-06T18:31:44.094Z,99074.13
2023-03-06T18:34:13.990Z,99082.47
2023-03-06T18:36:43.725Z,99085.81
2023-03-06T18:39:13.205Z,99089.09
2023-03-06T18:41:41.557Z,99091.56
2023-03-06T18:44:08.947Z,99088.13
2023-03-06T18:46:38.418Z,99085.53
2023-03-06T18:49:06.211Z,99090.75
2023-03-06T18:51:34.047Z,99086.47
2023-03-06T18:54:02.725Z,99088.91
2023-03-06T18:56:30.464Z,99094.88
2023-03-06T18:59:01.760Z,99094.81
2023-03-06T19:01:30.891Z,99092.97
2023-03-06T19:04:03.544Z,99098.00
2023-03-06T19:06:30.895Z,99092.03
2023-03-06T19:09:02.399Z,99090.31
2023-03-06T19:11:30.593Z,99095.34
2023-03-06T19:13:58.788Z,99097.09
2023-03-06T19:16:28.340Z,99095.41
2023-03-06T19:18:56.206Z,99098.69
2023-03-06T19:21:26.007Z,99106.28
2023-03-06T19:23:53.762Z,99100.25
2023-03-06T19:26:21.338Z,99106.13
2023-03-06T19:28:49.172Z,99107.78
2023-03-06T19:31:21.457Z,99113.66
2023-03-06T19:33:50.349Z,99105.94
2023-03-06T19:36:18.821Z,99111.84
2023-03-06T19:38:50.549Z,99110.16
2023-03-06T19:41:18.170Z,99125.34
2023-03-06T19:43:49.029Z,99115.22
2023-03-06T19:46:16.852Z,99111.78
2023-03-06T19:48:44.704Z,99115.16
2023-03-06T19:51:11.902Z,99116.66
2023-03-06T19:53:40.098Z,99117.53
2023-03-06T19:56:10.622Z,99128.44
2023-03-06T19:58:38.465Z,99118.09
2023-03-06T20:01:17.637Z,99124.88
2023-03-06T20:03:44.768Z,99124.03
2023-03-06T20:06:18.613Z,99124.75
2023-03-06T20:08:46.828Z,99112.69
2023-03-06T20:11:21.989Z,99126.31
2023-03-06T20:13:49.914Z,99126.13
2023-03-06T20:16:18.255Z,99129.50
2023-03-06T20:18:45.937Z,99126.06
2023-03-06T20:21:15.057Z,99126.78
2023-03-06T20:23:42.655Z,99133.59
2023-03-06T20:26:15.138Z,99123.38
2023-03-06T20:28:43.059Z,99126.75
2023-03-06T20:31:16.942Z,99127.56
2023-03-06T20:33:45.525Z,99133.47
2023-03-06T20:36:18.915Z,99125.78
2023-03-06T20:38:47.033Z,99124.88
2023-03-06T20:41:15.809Z,99125.47
2023-03-06T20:43:43.805Z,99129.84
2023-03-06T20:46:12.620Z,99130.53
2023-03-06T20:48:41.165Z,99123.78
2023-03-06T20:51:15.124Z,99123.78
2023-03-06T20:53:42.202Z,99123.78
2023-03-06T20:56:14.047Z,99123.78
2023-03-06T20:58:41.327Z,99113.44
2023-03-06T21:01:08.655Z,99111.84
2023-03-06T21:03:35.966Z,99116.03
2023-03-06T21:06:03.074Z,99113.44
2023-03-06T21:08:31.391Z,99103.16
2023-03-06T21:10:58.577Z,99119.22
2023-03-06T21:13:25.717Z,99118.31
2023-03-06T21:15:52.820Z,99118.31
2023-03-06T21:18:19.896Z,99111.63
2023-03-06T21:20:46.993Z,99109.94
2023-03-06T21:23:14.081Z,99101.28
2023-03-06T21:25:52.273Z,99118.31
2023-03-06T21:28:19.732Z,99119.22
2023-03-06T21:30:47.071Z,99114.94
2023-03-06T21:33:16.182Z,99119.88
2023-03-06T21:35:45.345Z,99118.19
2023-03-06T21:38:13.901Z,99113.19
2023-03-06T21:40:40.971Z,99114.94
2023-03-06T21:43:09.052Z,99109.69
2023-03-06T21:45:36.146Z,99113.13
2023-03-06T21:48:04.231Z,99118.25
2023-03-06T21:50:31.276Z,99114.75
2023-03-06T21:52:58.450Z,99116.56
2023-03-06T21:55:25.605Z,99114.81
2023-03-06T21:57:54.084Z,99112.34
2023-03-06T22:00:23.913Z,99115.72
2023-03-06T22:02:51.130Z,99114.03
2023-03-06T22:05:18.690Z,99110.66
2023-03-06T22:07:45.815Z,99109.88
2023-03-06T22:10:14.432Z,99106.50
2023-03-06T22:12:42.204Z,99100.41
2023-03-06T22:15:09.901Z,99107.16
2023-03-06T22:17:37.011Z,99101.13
2023-03-06T22:20:04.678Z,99096.88
2023-03-06T22:22:31.772Z,99096.06
2023-03-06T22:24:58.950Z,99102.84
2023-03-06T22:27:26.059Z,99096.16
2023-03-06T22:29:53.411Z,99089.31
2023-03-06T22:32:20.739Z,99082.28
2023-03-06T22:34:47.829Z,99100.34
2023-03-06T22:37:14.929Z,99096.16
2023-03-06T22:39:41.990Z,99094.44
2023-03-06T22:42:09.114Z,99091.09
2023-03-06T22:44:36.156Z,99082.53
2023-03-06T22:47:03.348Z,99091.00
2023-03-06T22:49:30.353Z,99094.28
2023-03-06T22:51:57.432Z,99093.38
2023-03-06T22:54:24.471Z,99090.69
2023-03-06T22:56:51.494Z,99088.03
2023-03-06T22:59:18.591Z,99090.56
2023-03-06T23:01:45.733Z,99092.19
2023-03-06T23:04:12.985Z,99091.34
2023-03-06T23:06:43.313Z,99036.41
2023-03-06T23:09:14.900Z,99090.28
2023-03-06T23:12:00.850Z,99090.38
2023-03-06T23:14:49.904Z,99087.75
2023-03-06T23:17:36.241Z,99080.19
2023-03-06T23:20:22.167Z,99087.91
2023-03-06T23:23:08.035Z,99090.56
2023-03-06T23:25:41.309Z,99095.63
2023-03-06T23:28:08.445Z,99087.19
2023-03-06T23:30:35.526Z,99080.34
2023-03-06T23:33:02.612Z,99092.25
2023-03-06T23:35:29.737Z,99088.81
2023-03-06T23:37:57.736Z,99082.06
2023-03-06T23:40:25.072Z,99078.63
2023-03-06T23:42:52.203Z,99078.63
2023-03-06T23:45:19.515Z,99071.94
2023-03-06T23:47:46.625Z,99074.47
2023-03-06T23:50:14.367Z,99073.56
2023-03-06T23:52:41.398Z,99074.47
2023-03-06T23:55:09.185Z,99073.66
2023-03-06T23:57:36.232Z,99067.72
